メインページ
METAR-TAF:

METAR-TAF

空港 :

成都, 中華人民共和国

成都双流国際空港

緯度: 30-40N, 経度: 104-01E, 海抜: 508m

現時点の気象観測

当レポートは33分前の19:00(UTC)に作成
無風
気温 13°C
湿度 72%
気圧 1018 hPa
視程10km以上
1,500メートル以下は雲なし、積乱雲なし

METAR: ZUUU 251900Z 00000MPS CAVOK 13/08 Q1018 NOSIG

時間: 03:33 (19:33 UTC)

予報

当レポートは5時間29分前の14:04(UTC)に作成
予報は25日の 18時(UTC)から 26日の 18時(UTC)まで有効
北/北東の風 6kt
視程: 5000m
高度4000ftの雲は散在している
26日の 14時(UTC)から 26日の 18時(UTC)まで一時的に
弱いにわか雨

TAF: ZUUU 251404Z 2518/2618 02003MPS 5000 BR SCT040 TX15/2607Z TN10/2524Z TEMPO 2614/2618 -SHRA

4,000以上の空港の気象観測と天気予報(METAR報とTAF報)

利用可能な観測所は地図上に黄色い丸と赤い丸で示す。

丸の上にカーソルを重ねると観測所名を参照できる。

次にクリックすると気象観測と天気予報を参照できる。

マップの切り替え:黒色「×」印の緑ボタンをクリックして拡大、「-」印の緑ボタンをクリックして縮小、緑色の三角印をクリックして隣りの地図に切り替え


METAR-TAF: